Time;durP1;ratioP1;P1;durP2;ratioP2;P2;SDS_P1;SDS_P2;PMS_P1;PMS_P2;Temp;Humidity;BMP_temperature;BMP_pressure;BME280_temperature;BME280_humidity;BME280_pressure;Samples;Min_cycle;Max_cycle;Signal;HPM_P1;HPM_P2
2022/03/13 01:22:06;;;;;;;13.90;10.97;;;;;;;5.13;34.11;101602.00;5037088;28;20498;-69
2022/03/13 01:24:36;;;;;;;13.00;11.30;;;;;;;5.07;34.70;101605.19;5059836;28;20435;-69
2022/03/13 01:27:02;;;;;;;14.00;12.00;;;;;;;5.03;34.88;101608.44;5059667;28;20461;-68
2022/03/13 01:29:32;;;;;;;12.43;11.13;;;;;;;5.38;34.46;101601.41;5060087;28;20412;-69
2022/03/13 01:39:18;;;;;;;12.23;10.93;;;;;;;5.26;34.22;101595.69;5059181;28;20671;-68
2022/03/13 01:41:44;;;;;;;11.80;10.30;;;;;;;4.91;34.54;101589.78;5059552;28;20396;-68
2022/03/13 01:44:09;;;;;;;18.80;11.37;;;;;;;5.19;34.34;101600.56;5059190;28;20416;-68
2022/03/13 01:46:34;;;;;;;13.07;10.90;;;;;;;5.24;34.64;101603.38;5059129;28;20173;-68
2022/03/13 01:49:05;;;;;;;13.23;10.23;;;;;;;5.06;33.93;101599.16;5059450;28;20174;-69
2022/03/13 01:51:32;;;;;;;13.37;10.27;;;;;;;5.30;34.91;101601.06;5058553;28;20260;-68
2022/03/13 01:54:01;;;;;;;14.07;12.60;;;;;;;5.05;34.50;101612.00;5058905;28;20456;-67
2022/03/13 01:56:29;;;;;;;12.20;10.90;;;;;;;5.32;34.82;101607.19;5058802;28;20408;-69
2022/03/13 01:58:55;;;;;;;13.30;11.47;;;;;;;5.16;35.57;101599.56;5059026;28;20439;-67
2022/03/13 02:01:24;;;;;;;12.33;11.00;;;;;;;4.89;35.35;101594.91;5059488;28;20412;-68
2022/03/13 02:03:49;;;;;;;12.07;10.37;;;;;;;4.89;35.39;101589.72;5058607;28;20893;-67
2022/03/13 02:06:15;;;;;;;12.30;10.77;;;;;;;4.68;35.33;101597.34;5057968;28;20503;-68
2022/03/13 02:08:41;;;;;;;19.93;11.77;;;;;;;5.01;35.25;101592.88;5059084;28;20451;-67
2022/03/13 02:11:06;;;;;;;14.53;11.57;;;;;;;4.71;35.67;101598.38;5058829;28;20427;-68
2022/03/13 02:13:34;;;;;;;13.50;12.10;;;;;;;4.56;36.32;101595.09;5057973;28;20201;-68
2022/03/13 02:15:59;;;;;;;13.37;11.30;;;;;;;4.10;36.76;101579.91;5059257;28;20170;-68
2022/03/13 02:18:25;;;;;;;16.87;11.23;;;;;;;4.08;37.17;101574.69;5058611;28;20409;-67
2022/03/13 02:20:50;;;;;;;12.20;10.17;;;;;;;4.41;36.58;101582.31;5058744;28;20195;-67
2022/03/13 02:23:18;;;;;;;24.53;12.93;;;;;;;4.31;36.50;101575.81;5058354;28;20240;-69
2022/03/13 02:25:43;;;;;;;15.80;11.20;;;;;;;4.17;37.31;101574.25;5058299;28;20189;-69
2022/03/13 02:28:08;;;;;;;13.90;12.13;;;;;;;4.43;37.01;101584.97;5058361;28;20831;-68
2022/03/13 02:30:34;;;;;;;12.83;11.40;;;;;;;4.16;36.18;101586.25;5058369;28;20543;-68
2022/03/13 02:32:59;;;;;;;16.60;12.50;;;;;;;4.69;35.54;101576.75;5058161;28;20225;-67
2022/03/13 02:35:28;;;;;;;14.23;12.73;;;;;;;4.32;36.26;101575.00;5058732;28;20165;-67
2022/03/13 02:37:54;;;;;;;13.20;11.80;;;;;;;4.26;35.49;101569.53;5058265;28;20173;-67
2022/03/13 02:40:24;;;;;;;18.40;14.23;;;;;;;4.26;35.29;101569.53;5057435;28;20423;-67
2022/03/13 02:42:50;;;;;;;17.93;10.87;;;;;;;4.12;36.16;101571.44;5058662;28;20458;-68
2022/03/13 02:45:29;;;;;;;13.50;12.07;;;;;;;4.20;35.30;101575.28;5057457;28;20419;-67
2022/03/13 02:47:55;;;;;;;13.33;11.93;;;;;;;4.32;35.66;101581.88;5058027;28;20429;-67
2022/03/13 02:50:20;;;;;;;12.37;11.07;;;;;;;4.21;35.47;101569.31;5057422;28;20412;-67
2022/03/13 02:52:46;;;;;;;15.07;11.20;;;;;;;4.28;35.67;101578.25;5058081;28;20470;-67
2022/03/13 02:55:11;;;;;;;13.30;11.40;;;;;;;4.34;36.82;101572.50;5058448;28;20543;-67
2022/03/13 02:57:38;;;;;;;12.43;10.63;;;;;;;3.97;35.83;101565.53;5058163;28;20223;-68
2022/03/13 03:00:05;;;;;;;15.63;11.43;;;;;;;3.85;36.23;101566.66;5057854;28;20181;-68
2022/03/13 03:02:31;;;;;;;12.67;11.37;;;;;;;3.65;36.43;101569.94;5058151;28;20473;-68
2022/03/13 03:04:56;;;;;;;14.10;11.40;;;;;;;3.99;36.03;101569.97;5057931;28;20707;-67
2022/03/13 03:07:21;;;;;;;15.73;11.77;;;;;;;3.58;36.21;101573.91;5057758;28;20178;-68
2022/03/13 03:09:47;;;;;;;13.40;12.00;;;;;;;3.87;36.31;101575.38;5058474;28;20432;-68
2022/03/13 03:12:12;;;;;;;13.00;11.20;;;;;;;3.81;35.76;101574.19;5057689;28;20173;-68
2022/03/13 03:14:37;;;;;;;16.00;11.97;;;;;;;3.85;35.45;101578.69;5057904;28;20252;-69
2022/03/13 03:17:04;;;;;;;13.10;11.17;;;;;;;3.92;35.84;101565.28;5057489;28;20175;-69
2022/03/13 03:19:30;;;;;;;13.17;11.20;;;;;;;3.30;36.23;101575.06;5057604;28;20216;-70
2022/03/13 03:21:55;;;;;;;13.87;10.57;;;;;;;3.44;36.25;101570.63;5057639;28;20432;-67
2022/03/13 03:24:23;;;;;;;16.13;11.70;;;;;;;3.71;36.15;101571.13;5057647;28;20556;-68
2022/03/13 03:26:48;;;;;;;12.27;10.93;;;;;;;3.98;35.32;101563.03;5057716;28;20181;-67
2022/03/13 03:29:13;;;;;;;13.63;11.73;;;;;;;3.67;36.38;101571.78;5057840;28;20510;-68
2022/03/13 03:31:44;;;;;;;16.23;12.23;;;;;;;3.81;37.46;101574.19;5057584;28;20188;-67
2022/03/13 03:34:11;;;;;;;15.00;12.10;;;;;;;3.53;35.74;101580.50;5056737;28;20563;-68
2022/03/13 03:36:48;;;;;;;14.40;12.87;;;;;;;3.78;37.01;101574.91;5057839;28;20487;-68
2022/03/13 03:39:14;;;;;;;13.50;11.90;;;;;;;3.77;38.13;101572.25;5057058;28;20419;-69
2022/03/13 03:41:45;;;;;;;16.93;12.80;;;;;;;3.71;36.04;101573.72;5057717;28;20511;-69
2022/03/13 03:44:11;;;;;;;13.20;11.80;;;;;;;3.60;36.80;101580.03;5057776;28;20420;-68
2022/03/13 03:46:36;;;;;;;14.90;11.77;;;;;;;3.42;37.47;101579.94;5057687;28;20892;-68
2022/03/13 03:49:02;;;;;;;12.83;10.70;;;;;;;3.49;36.48;101582.06;5057792;28;20444;-69
2022/03/13 03:51:28;;;;;;;13.70;12.30;;;;;;;3.55;37.68;101576.31;5057512;28;20173;-69
2022/03/13 03:53:53;;;;;;;11.40;10.20;;;;;;;3.65;37.50;101590.56;5057399;28;20224;-69
2022/03/13 03:56:18;;;;;;;14.67;12.17;;;;;;;3.36;37.21;101587.38;5057956;28;20181;-67
2022/03/13 03:58:44;;;;;;;14.33;11.60;;;;;;;3.22;37.31;101586.66;5057260;28;20169;-67
2022/03/13 04:01:09;;;;;;;15.00;11.20;;;;;;;3.34;37.25;101594.13;5057435;28;20170;-67
2022/03/13 04:03:34;;;;;;;14.70;12.03;;;;;;;3.32;37.03;101588.91;5057259;28;20185;-68
2022/03/13 04:06:00;;;;;;;14.03;11.80;;;;;;;3.80;37.04;101582.72;5057410;28;20177;-68
2022/03/13 04:08:25;;;;;;;14.70;11.00;;;;;;;3.33;36.92;101585.53;5057188;28;20173;-68
2022/03/13 04:10:51;;;;;;;14.10;11.03;;;;;;;3.31;37.15;101583.66;5057757;28;20397;-68
2022/03/13 04:13:18;;;;;;;13.93;12.23;;;;;;;3.52;36.67;101577.03;5057293;28;20339;-69
2022/03/13 04:15:43;;;;;;;15.93;12.50;;;;;;;3.90;36.08;101587.56;5057447;28;20180;-67
2022/03/13 04:18:10;;;;;;;12.87;11.50;;;;;;;3.04;37.22;101602.00;5057593;28;20412;-67
2022/03/13 04:20:35;;;;;;;12.80;11.43;;;;;;;3.31;36.04;101591.41;5057664;28;20562;-67
2022/03/13 04:23:01;;;;;;;14.10;12.10;;;;;;;3.47;36.24;101582.78;5057052;28;20461;-68
2022/03/13 04:25:26;;;;;;;13.37;11.33;;;;;;;3.12;36.66;101576.66;5057657;28;20169;-68
2022/03/13 04:27:51;;;;;;;13.80;11.60;;;;;;;3.50;37.95;101578.66;5057657;28;20176;-67
2022/03/13 04:30:17;;;;;;;14.40;11.53;;;;;;;2.88;37.19;101589.97;5061245;28;20423;-67
2022/03/13 04:32:42;;;;;;;14.37;11.90;;;;;;;2.81;37.92;101587.84;5061358;28;20217;-67
2022/03/13 04:35:08;;;;;;;12.97;11.67;;;;;;;3.28;37.59;101592.13;5060655;28;20181;-67
2022/03/13 04:37:33;;;;;;;14.07;11.80;;;;;;;2.92;36.52;101597.03;5060411;28;20287;-68
2022/03/13 04:39:58;;;;;;;13.63;11.90;;;;;;;3.33;38.20;101582.06;5061056;28;20412;-68
2022/03/13 04:42:24;;;;;;;16.07;11.67;;;;;;;3.00;37.47;101582.03;5060561;28;20169;-67
2022/03/13 04:44:49;;;;;;;15.30;11.27;;;;;;;2.97;36.96;101593.03;5060500;28;20338;-67
2022/03/13 04:47:15;;;;;;;14.93;11.80;;;;;;;2.89;37.28;101598.59;5060724;28;20227;-67
2022/03/13 04:49:41;;;;;;;14.10;12.20;;;;;;;2.88;37.12;101581.34;5060347;28;20460;-67
2022/03/13 04:52:06;;;;;;;12.60;11.40;;;;;;;2.82;37.76;101593.09;5060160;28;20182;-68
2022/03/13 04:54:32;;;;;;;14.90;12.30;;;;;;;3.18;37.89;101585.59;5060591;28;20559;-67
2022/03/13 04:56:57;;;;;;;14.00;11.73;;;;;;;2.83;36.71;101599.16;5060197;28;20181;-68
2022/03/13 04:59:22;;;;;;;13.57;12.13;;;;;;;3.26;38.06;101587.69;5059943;28;20169;-68
2022/03/13 05:01:48;;;;;;;14.50;11.50;;;;;;;2.95;37.74;101581.78;5060421;28;20170;-68
2022/03/13 05:04:13;;;;;;;13.90;11.30;;;;;;;3.05;37.97;101582.28;5059973;28;20191;-68
2022/03/13 05:06:40;;;;;;;15.43;11.20;;;;;;;2.56;37.52;101583.03;5060108;28;20550;-69
2022/03/13 05:09:06;;;;;;;13.47;11.47;;;;;;;2.91;37.17;101572.13;5060125;28;20161;-68
2022/03/13 05:11:32;;;;;;;16.77;13.00;;;;;;;2.76;37.52;101582.47;5059919;28;20408;-69
2022/03/13 05:13:57;;;;;;;13.73;11.20;;;;;;;2.68;38.15;101576.88;5059924;28;20463;-67
2022/03/13 05:16:22;;;;;;;15.47;12.27;;;;;;;2.43;38.46;101584.06;5059503;28;20536;-67
2022/03/13 05:18:48;;;;;;;13.20;11.73;;;;;;;2.40;37.95;101581.31;5059856;28;20180;-69
2022/03/13 05:21:14;;;;;;;13.70;11.97;;;;;;;2.41;38.06;101583.06;5059664;28;20197;-68
2022/03/13 05:23:39;;;;;;;13.57;11.00;;;;;;;2.28;38.21;101584.06;5059686;28;20515;-68
2022/03/13 05:26:05;;;;;;;14.53;12.27;;;;;;;2.92;37.93;101575.56;5059607;28;20522;-69
2022/03/13 05:28:30;;;;;;;14.73;12.03;;;;;;;2.81;37.45;101577.56;5059866;28;20532;-68
2022/03/13 05:30:55;;;;;;;20.20;12.17;;;;;;;2.64;37.16;101585.25;5059597;28;20188;-67
2022/03/13 05:33:21;;;;;;;17.73;12.13;;;;;;;2.77;37.66;101585.91;5059341;28;20497;-68
2022/03/13 05:35:46;;;;;;;13.73;12.23;;;;;;;2.73;37.38;101589.13;5059921;28;20255;-66
2022/03/13 05:38:11;;;;;;;13.20;11.70;;;;;;;2.89;36.98;101588.28;5059231;28;20178;-67
2022/03/13 05:40:37;;;;;;;14.67;11.73;;;;;;;2.70;37.71;101589.84;5059163;28;20178;-67
2022/03/13 05:43:04;;;;;;;13.40;12.00;;;;;;;2.74;37.70;101596.06;5059623;28;20165;-68
2022/03/13 05:45:30;;;;;;;14.40;12.00;;;;;;;2.51;37.52;101595.66;5058689;28;20692;-67
2022/03/13 05:48:03;;;;;;;15.13;12.70;;;;;;;2.98;36.67;101592.25;5058994;28;20416;-67
2022/03/13 05:50:29;;;;;;;13.87;11.93;;;;;;;2.75;36.98;101590.09;5058888;28;20178;-67
2022/03/13 05:52:56;;;;;;;13.53;11.90;;;;;;;2.55;37.49;101591.59;5059201;28;20467;-67
2022/03/13 05:55:22;;;;;;;15.60;12.17;;;;;;;2.27;37.97;101597.72;5059184;28;20550;-68
2022/03/13 05:57:47;;;;;;;13.00;11.63;;;;;;;2.26;38.06;101586.56;5058884;28;20423;-67
2022/03/13 06:00:14;;;;;;;12.90;11.33;;;;;;;2.38;37.75;101593.19;5059359;28;20434;-67
2022/03/13 06:02:40;;;;;;;12.80;10.60;;;;;;;2.07;38.33;101599.16;5059393;28;20170;-67
2022/03/13 06:05:07;;;;;;;12.00;10.63;;;;;;;2.86;38.44;101602.75;5058978;28;20515;-66
2022/03/13 06:07:33;;;;;;;13.07;11.40;;;;;;;2.81;38.01;101604.19;5058910;28;20832;-67
2022/03/13 06:10:02;;;;;;;12.23;10.93;;;;;;;2.64;37.36;101603.28;5059510;28;20412;-67
2022/03/13 06:12:27;;;;;;;13.47;10.70;;;;;;;2.27;37.66;101598.59;5058844;28;20603;-67
2022/03/13 06:14:53;;;;;;;15.93;12.40;;;;;;;2.66;37.13;101596.50;5058794;28;20495;-67
2022/03/13 06:17:18;;;;;;;13.80;11.83;;;;;;;2.91;36.92;101594.41;5059036;28;20237;-68
2022/03/13 06:19:44;;;;;;;14.63;11.43;;;;;;;2.77;37.17;101601.38;5058703;28;20629;-68
2022/03/13 06:22:10;;;;;;;13.30;11.77;;;;;;;2.75;37.48;101597.81;5058517;28;20176;-67
2022/03/13 06:24:36;;;;;;;14.30;11.97;;;;;;;2.59;37.51;101596.97;5058784;28;20459;-67
2022/03/13 06:27:01;;;;;;;15.90;12.37;;;;;;;2.80;37.34;101593.81;5058489;28;20451;-68
2022/03/13 06:29:26;;;;;;;14.13;11.50;;;;;;;2.80;37.80;101588.66;5058494;28;20533;-68
2022/03/13 06:31:52;;;;;;;14.00;11.20;;;;;;;2.59;37.36;101599.53;5058886;28;20515;-67
2022/03/13 06:34:18;;;;;;;16.80;11.50;;;;;;;2.98;36.91;101599.97;5058254;28;20322;-68
2022/03/13 06:36:44;;;;;;;16.30;13.00;;;;;;;2.97;36.85;101599.91;5058360;28;20188;-68
2022/03/13 06:39:09;;;;;;;13.30;11.43;;;;;;;3.71;35.50;101598.63;5058538;28;20398;-68
2022/03/13 06:41:34;;;;;;;13.60;11.70;;;;;;;4.61;33.45;101588.41;5058088;28;20559;-68
2022/03/13 06:43:59;;;;;;;16.13;11.67;;;;;;;4.19;34.29;101598.44;5058340;28;20180;-68
2022/03/13 06:46:25;;;;;;;14.33;10.83;;;;;;;3.23;35.18;101598.72;5058653;28;20174;-68
2022/03/13 06:48:50;;;;;;;14.30;11.07;;;;;;;3.42;34.87;101597.13;5059049;28;20515;-68
2022/03/13 06:51:16;;;;;;;12.23;10.00;;;;;;;2.55;36.32;101599.31;5058015;28;20192;-68
2022/03/13 06:53:41;;;;;;;14.73;12.17;;;;;;;3.58;36.47;101599.69;5058666;28;20201;-68
2022/03/13 06:56:07;;;;;;;13.20;11.90;;;;;;;3.83;35.35;101604.41;5049759;28;20202;-68
2022/03/13 06:58:32;;;;;;;16.70;11.23;;;;;;;3.53;35.06;101603.69;5036235;28;20242;-67
2022/03/13 07:00:57;;;;;;;14.57;11.57;;;;;;;3.63;35.89;101598.22;5043511;28;20209;-68
2022/03/13 07:03:22;;;;;;;14.80;12.20;;;;;;;5.31;33.08;101594.22;5047161;28;20190;-69
2022/03/13 07:05:48;;;;;;;14.80;11.63;;;;;;;5.95;30.80;101582.28;5038013;28;20189;-68
2022/03/13 07:08:14;;;;;;;13.17;11.80;;;;;;;7.97;28.49;101589.97;5047452;28;20185;-69
2022/03/13 07:10:40;;;;;;;13.73;11.80;;;;;;;7.68;27.70;101591.56;5052125;28;20276;-66
2022/03/13 07:13:05;;;;;;;13.00;11.70;;;;;;;8.02;27.79;101587.53;5056832;28;20550;-66
2022/03/13 07:15:31;;;;;;;15.00;12.30;;;;;;;8.86;26.63;101596.28;5058319;28;20186;-67
2022/03/13 07:17:57;;;;;;;12.93;11.70;;;;;;;9.29;26.63;101601.91;5056928;28;20268;-68
2022/03/13 07:20:22;;;;;;;14.30;12.00;;;;;;;10.43;24.98;101595.38;5057146;28;20900;-68
2022/03/13 07:22:48;;;;;;;14.90;12.63;;;;;;;9.02;25.98;101598.50;5057636;28;20467;-67
2022/03/13 07:25:14;;;;;;;14.03;12.37;;;;;;;10.14;25.10;101596.38;5057387;28;20177;-69
2022/03/13 07:27:39;;;;;;;13.27;11.97;;;;;;;9.14;26.69;101594.53;5057317;28;20223;-67
2022/03/13 07:30:06;;;;;;;13.03;11.73;;;;;;;8.92;26.59;101575.69;5057291;28;20416;-68
2022/03/13 07:32:32;;;;;;;13.20;11.83;;;;;;;8.34;26.65;101595.50;5057424;28;20520;-67
2022/03/13 07:34:57;;;;;;;13.60;12.20;;;;;;;9.74;25.16;101594.50;5057928;28;20404;-67
2022/03/13 07:37:22;;;;;;;13.13;11.63;;;;;;;10.62;24.59;101582.75;5057181;28;20192;-66
2022/03/13 07:39:48;;;;;;;12.63;11.30;;;;;;;9.29;25.55;101581.94;5057505;28;20169;-67
2022/03/13 07:42:14;;;;;;;13.90;12.40;;;;;;;9.75;25.32;101574.53;5057887;28;20614;-67
2022/03/13 07:44:40;;;;;;;13.10;11.70;;;;;;;9.72;25.13;101592.69;5057314;28;20169;-66
2022/03/13 07:47:05;;;;;;;17.40;11.73;;;;;;;10.15;24.52;101582.47;5057292;28;20405;-66
2022/03/13 07:49:30;;;;;;;12.93;11.60;;;;;;;8.68;25.65;101594.88;5057632;28;20173;-67
2022/03/13 07:51:56;;;;;;;12.37;11.10;;;;;;;8.23;25.46;101584.78;5057333;28;20551;-65
2022/03/13 07:54:21;;;;;;;13.17;11.73;;;;;;;10.62;24.23;101567.13;5057118;28;20229;-65
2022/03/13 07:56:47;;;;;;;12.53;11.10;;;;;;;9.62;25.04;101583.75;5057856;28;20532;-66
2022/03/13 07:59:12;;;;;;;12.93;11.63;;;;;;;10.63;24.13;101570.63;5057046;28;20227;-66
2022/03/13 08:01:37;;;;;;;14.33;10.70;;;;;;;10.55;24.40;101586.09;5057468;28;20227;-66
2022/03/13 08:04:05;;;;;;;12.10;11.00;;;;;;;9.63;25.03;101585.50;5061288;28;20161;-66
2022/03/13 08:06:39;;;;;;;13.50;12.20;;;;;;;9.53;25.62;101578.28;5060916;28;20262;-65
2022/03/13 08:09:05;;;;;;;13.60;12.20;;;;;;;8.90;26.18;101580.84;5061013;28;20402;-65
2022/03/13 08:11:34;;;;;;;12.77;11.13;;;;;;;8.67;25.75;101587.06;5061005;28;20404;-65
2022/03/13 08:13:59;;;;;;;12.43;11.13;;;;;;;7.73;26.89;101590.88;5060994;28;20205;-65
2022/03/13 08:16:24;;;;;;;13.07;11.77;;;;;;;11.83;23.38;101573.06;5061243;28;20511;-65
2022/03/13 08:18:50;;;;;;;11.57;10.43;;;;;;;9.51;25.34;101590.34;5060737;28;20184;-64
2022/03/13 08:21:16;;;;;;;13.43;12.13;;;;;;;10.08;24.59;101574.53;5060875;28;20422;-67
2022/03/13 08:23:41;;;;;;;12.63;11.50;;;;;;;10.10;24.58;101583.25;5060754;28;20217;-67
2022/03/13 08:26:06;;;;;;;14.00;12.07;;;;;;;11.96;22.57;101564.63;5060861;28;20177;-68
2022/03/13 08:28:32;;;;;;;13.50;12.10;;;;;;;11.70;22.94;101566.72;5060770;28;20268;-67
2022/03/13 08:30:58;;;;;;;12.97;11.50;;;;;;;12.64;21.86;101556.94;5060634;28;20169;-67
2022/03/13 08:33:23;;;;;;;11.80;10.80;;;;;;;12.94;21.49;101563.47;5060411;28;20201;-67
2022/03/13 08:35:49;;;;;;;12.57;11.27;;;;;;;11.43;22.24;101561.84;5060734;28;20790;-68
2022/03/13 08:38:14;;;;;;;12.33;11.23;;;;;;;12.37;22.41;101550.44;5060226;28;20166;-68
2022/03/13 08:40:39;;;;;;;13.13;11.90;;;;;;;11.47;22.60;101555.84;5060427;28;20170;-67
2022/03/13 08:43:05;;;;;;;13.07;11.67;;;;;;;11.75;23.01;101556.38;5061009;28;20476;-66
2022/03/13 08:45:31;;;;;;;13.90;12.40;;;;;;;11.86;22.53;101554.81;5060386;28;20572;-65
2022/03/13 08:47:56;;;;;;;12.33;11.07;;;;;;;10.52;23.89;101565.16;5060156;28;20470;-66
2022/03/13 08:50:24;;;;;;;13.83;11.70;;;;;;;12.07;22.85;101570.03;5060718;28;20837;-66
2022/03/13 08:52:49;;;;;;;13.13;11.83;;;;;;;11.52;23.15;101576.84;5060124;28;20228;-67
2022/03/13 08:55:15;;;;;;;12.83;11.60;;;;;;;9.91;24.29;101579.28;5060106;28;20411;-66
2022/03/13 08:57:42;;;;;;;12.80;11.50;;;;;;;10.88;23.78;101574.63;5060645;28;20162;-66
2022/03/13 09:00:10;;;;;;;12.60;11.30;;;;;;;11.08;23.03;101573.38;5060156;28;20401;-66
2022/03/13 09:02:36;;;;;;;12.57;11.43;;;;;;;11.93;23.54;101574.09;5059976;28;20473;-67
2022/03/13 09:05:01;;;;;;;12.70;11.40;;;;;;;11.84;23.46;101566.97;5060535;28;20491;-67
2022/03/13 09:07:26;;;;;;;14.83;11.80;;;;;;;12.59;22.58;101564.72;5059751;28;20181;-68
2022/03/13 09:09:52;;;;;;;13.23;12.03;;;;;;;10.95;24.35;101571.34;5059842;28;20458;-66
2022/03/13 09:12:17;;;;;;;12.07;10.87;;;;;;;10.90;24.19;101575.56;5060277;28;20166;-68
2022/03/13 09:14:42;;;;;;;12.77;11.50;;;;;;;11.90;22.58;101558.38;5058686;28;20205;-66
2022/03/13 09:17:08;;;;;;;12.27;11.03;;;;;;;11.26;24.15;101561.53;5059561;28;20278;-66
2022/03/13 09:19:34;;;;;;;12.83;11.60;;;;;;;11.08;24.17;101560.31;5059946;28;20178;-67
2022/03/13 09:21:59;;;;;;;14.60;11.17;;;;;;;11.78;23.60;101554.69;5059430;28;20174;-67
2022/03/13 09:24:24;;;;;;;13.50;12.17;;;;;;;11.63;24.31;101547.44;5059313;28;20217;-66
2022/03/13 09:26:49;;;;;;;12.40;11.20;;;;;;;10.89;24.39;101556.44;5059818;28;20260;-66
2022/03/13 09:29:15;;;;;;;16.43;12.10;;;;;;;11.73;23.54;101551.13;5059173;28;20251;-67
2022/03/13 09:31:40;;;;;;;13.20;11.90;;;;;;;12.09;23.57;101546.53;5059428;28;20180;-67
2022/03/13 09:34:06;;;;;;;12.30;11.20;;;;;;;12.79;22.52;101546.69;5059560;28;20208;-67
2022/03/13 09:36:36;;;;;;;12.60;11.50;;;;;;;11.80;22.99;101555.59;5058473;28;20281;-66
2022/03/13 09:39:02;;;;;;;13.33;12.00;;;;;;;11.86;23.64;101538.25;5059120;28;20245;-66
2022/03/13 09:41:27;;;;;;;12.80;11.33;;;;;;;13.63;21.94;101524.97;5059523;28;20416;-66
2022/03/13 09:43:53;;;;;;;12.17;10.97;;;;;;;14.20;21.53;101539.44;5059232;28;20423;-70
2022/03/13 09:46:19;;;;;;;12.23;11.13;;;;;;;12.65;22.94;101540.41;5059127;28;20170;-69
2022/03/13 09:48:45;;;;;;;12.60;11.30;;;;;;;14.72;20.83;101531.06;5059527;28;20322;-67
2022/03/13 09:51:10;;;;;;;12.47;11.37;;;;;;;13.82;21.54;101539.13;5059076;28;20499;-67
2022/03/13 09:53:36;;;;;;;11.87;10.73;;;;;;;13.56;21.70;101527.56;5058886;28;20579;-67
2022/03/13 09:56:03;;;;;;;11.93;10.73;;;;;;;14.02;21.00;101541.06;5059212;28;20172;-71
2022/03/13 09:58:29;;;;;;;12.40;11.30;;;;;;;13.31;22.17;101522.91;5058720;28;20409;-71
2022/03/13 10:00:56;;;;;;;13.07;11.87;;;;;;;13.20;22.23;101534.97;5058732;28;20386;-69
2022/03/13 10:03:21;;;;;;;12.17;10.97;;;;;;;13.08;21.84;101529.59;5059284;28;20406;-67
2022/03/13 10:05:48;;;;;;;11.60;10.50;;;;;;;13.84;21.03;101514.69;5058248;28;20899;-69
2022/03/13 10:08:14;;;;;;;12.03;10.83;;;;;;;12.64;22.13;101529.03;5058344;28;20469;-67
2022/03/13 10:10:45;;;;;;;13.07;11.70;;;;;;;13.20;21.79;101536.72;5057937;28;20485;-69
2022/03/13 10:13:13;;;;;;;11.53;10.30;;;;;;;13.45;21.27;101530.94;5058349;28;20232;-68
2022/03/13 10:15:47;;;;;;;12.50;11.13;;;;;;;14.65;20.22;101530.13;5057637;28;20387;-67
2022/03/13 10:18:17;;;;;;;11.43;10.33;;;;;;;13.37;21.41;101519.50;5058575;28;20686;-67
2022/03/13 10:20:43;;;;;;;12.70;11.40;;;;;;;13.27;21.22;101531.59;5055480;28;20440;-68
2022/03/13 10:23:16;;;;;;;11.73;10.60;;;;;;;13.40;21.10;101527.38;5046913;28;20436;-67
2022/03/13 10:25:43;;;;;;;13.37;12.03;;;;;;;12.68;21.90;101529.97;5048486;28;20481;-67
2022/03/13 10:28:24;;;;;;;13.00;11.90;;;;;;;12.84;21.80;101544.16;5057615;28;20817;-68
2022/03/13 10:30:59;;;;;;;11.33;10.23;;;;;;;14.35;20.82;101536.94;5041141;28;20754;-68
2022/03/13 10:33:26;;;;;;;11.17;10.00;;;;;;;14.28;20.28;101532.50;5038532;28;20473;-68
2022/03/13 10:36:06;;;;;;;12.40;11.20;;;;;;;13.54;21.07;101532.75;5038144;28;20400;-68
2022/03/13 10:38:33;;;;;;;12.13;10.87;;;;;;;13.14;21.27;101546.25;5038135;28;20396;-69
2022/03/13 10:40:58;;;;;;;12.27;11.07;;;;;;;13.53;21.25;101532.72;5037920;28;20412;-69
2022/03/13 10:43:26;;;;;;;11.60;10.43;;;;;;;14.56;20.08;101528.31;5038262;28;20787;-68
2022/03/13 10:45:53;;;;;;;11.23;10.23;;;;;;;14.58;20.13;101523.09;5038728;28;20572;-67
2022/03/13 10:48:28;;;;;;;10.57;9.63;;;;;;;11.88;22.62;101527.00;5038013;28;20397;-67
2022/03/13 10:50:55;;;;;;;11.03;10.00;;;;;;;12.02;22.05;101526.38;5037088;28;20472;-67
2022/03/13 10:53:21;;;;;;;11.90;10.80;;;;;;;13.23;21.53;101518.41;5038186;28;20736;-67
2022/03/13 10:56:08;;;;;;;11.80;10.70;;;;;;;13.38;21.37;101533.44;5037976;28;20412;-67
2022/03/13 10:58:36;;;;;;;12.20;11.07;;;;;;;13.74;21.50;101525.09;5037718;28;20424;-66
2022/03/13 11:01:13;;;;;;;11.10;10.10;;;;;;;15.06;19.88;101513.72;5037865;28;20396;-67
2022/03/13 11:03:59;;;;;;;12.10;10.90;;;;;;;14.01;20.48;101509.59;5037892;28;20391;-68
2022/03/13 11:06:26;;;;;;;11.17;9.97;;;;;;;13.50;20.55;101506.50;5038088;28;20424;-68
2022/03/13 11:08:55;;;;;;;11.03;10.03;;;;;;;14.49;19.90;101508.16;5037694;28;20691;-67
2022/03/13 11:11:27;;;;;;;12.33;11.13;;;;;;;14.57;19.95;101510.81;5037689;28;20502;-68
2022/03/13 11:13:59;;;;;;;11.03;10.03;;;;;;;14.43;20.22;101519.50;5037425;28;20461;-67
2022/03/13 11:16:31;;;;;;;11.80;10.23;;;;;;;12.37;21.87;101511.22;5037531;28;20435;-67
2022/03/13 11:19:05;;;;;;;11.50;10.40;;;;;;;12.63;21.82;101508.97;5037620;28;20413;-67
2022/03/13 11:21:31;;;;;;;12.60;11.40;;;;;;;14.28;20.37;101485.31;5037606;28;20770;-67
2022/03/13 11:23:57;;;;;;;12.20;10.67;;;;;;;14.37;20.49;101476.59;5037352;28;20471;-67
2022/03/13 11:26:24;;;;;;;11.50;10.30;;;;;;;15.80;19.48;101470.94;5037589;28;20460;-67
2022/03/13 11:28:50;;;;;;;11.17;10.17;;;;;;;13.31;21.65;101474.88;5037038;28;20505;-68
2022/03/13 11:31:38;;;;;;;11.90;10.90;;;;;;;14.31;20.63;101472.19;5037454;28;20492;-67
2022/03/13 11:34:20;;;;;;;12.60;11.33;;;;;;;13.59;21.76;101481.28;5036821;28;20206;-69
2022/03/13 11:36:49;;;;;;;12.93;11.33;;;;;;;13.92;21.61;101468.44;5037293;28;20796;-70
2022/03/13 11:39:28;;;;;;;11.20;10.10;;;;;;;14.07;21.18;101480.78;5041511;28;20773;-70
2022/03/13 11:41:54;;;;;;;11.90;10.77;;;;;;;14.81;20.19;101474.22;5041513;28;20649;-69
2022/03/13 11:44:20;;;;;;;11.77;10.67;;;;;;;13.75;20.92;101477.06;5041311;28;20413;-70
2022/03/13 11:46:48;;;;;;;12.27;11.17;;;;;;;13.67;21.51;101470.88;5041376;28;20449;-69
2022/03/13 11:49:31;;;;;;;12.30;11.10;;;;;;;13.92;21.10;101464.09;5041276;28;20170;-69
2022/03/13 11:52:17;;;;;;;11.83;10.57;;;;;;;13.94;21.02;101466.72;5041710;28;20383;-69
2022/03/13 11:54:45;;;;;;;12.37;11.27;;;;;;;14.21;20.43;101470.41;5038004;28;20468;-70
2022/03/13 11:57:14;;;;;;;11.10;10.10;;;;;;;14.36;20.48;101460.00;5041645;28;20423;-69
2022/03/13 11:59:42;;;;;;;10.47;9.17;;;;;;;13.14;21.33;101461.63;5041426;28;20417;-69
2022/03/13 12:02:11;;;;;;;12.40;11.17;;;;;;;13.82;20.92;101452.63;5041394;28;20413;-69
2022/03/13 12:04:36;;;;;;;11.50;10.40;;;;;;;13.62;21.23;101470.81;5041322;28;20422;-69
2022/03/13 12:07:06;;;;;;;11.57;10.43;;;;;;;14.56;20.22;101451.34;5041754;28;20409;-70
2022/03/13 12:09:42;;;;;;;10.67;9.60;;;;;;;13.47;21.09;101458.47;5040544;28;20205;-69
2022/03/13 12:12:17;;;;;;;10.70;9.70;;;;;;;12.68;22.02;101459.34;5040999;28;20392;-68
2022/03/13 12:14:54;;;;;;;11.80;10.70;;;;;;;13.52;20.99;101449.75;5041168;28;20476;-69
2022/03/13 12:17:23;;;;;;;11.00;9.90;;;;;;;14.25;20.72;101435.47;5041088;28;20417;-70
2022/03/13 12:19:49;;;;;;;11.50;10.40;;;;;;;14.33;20.68;101436.38;5041140;28;20659;-69
2022/03/13 12:22:15;;;;;;;11.00;10.00;;;;;;;14.17;20.08;101437.13;5040976;28;20399;-69
2022/03/13 12:24:51;;;;;;;10.00;9.10;;;;;;;13.68;20.60;101428.09;5041520;28;20167;-69
2022/03/13 12:27:18;;;;;;;10.47;9.47;;;;;;;14.93;19.72;101425.28;5040982;28;20425;-71
2022/03/13 12:29:55;;;;;;;12.67;9.97;;;;;;;13.59;21.05;101425.41;5040826;28;20391;-69
2022/03/13 12:32:30;;;;;;;10.80;9.80;;;;;;;14.95;19.80;101427.03;5041039;28;20404;-70
2022/03/13 12:34:57;;;;;;;11.37;10.27;;;;;;;13.97;20.72;101424.78;5040827;28;20399;-70
2022/03/13 12:37:23;;;;;;;10.20;9.27;;;;;;;12.33;21.95;101453.66;5039574;28;20403;-70
2022/03/13 12:39:50;;;;;;;11.47;10.37;;;;;;;13.42;21.53;101417.38;5040495;28;20408;-70
2022/03/13 12:42:24;;;;;;;10.67;9.67;;;;;;;13.41;21.21;101419.13;5040450;28;20433;-70